sensor_id;sensor_type;location;lat;lon;timestamp;P1;durP1;ratioP1;P2;durP2;ratioP2
15151;SDS011;7676;50.900;6.234;2023-03-05T00:14:02;3.63;;;1.60;;
15151;SDS011;7676;50.900;6.234;2023-03-05T00:29:06;4.50;;;1.40;;
15151;SDS011;7676;50.900;6.234;2023-03-05T00:44:09;3.10;;;1.57;;
15151;SDS011;7676;50.900;6.234;2023-03-05T00:59:12;4.97;;;1.97;;
15151;SDS011;7676;50.900;6.234;2023-03-05T01:14:14;5.93;;;2.20;;
15151;SDS011;7676;50.900;6.234;2023-03-05T01:29:16;6.90;;;2.43;;
15151;SDS011;7676;50.900;6.234;2023-03-05T01:44:23;6.33;;;2.90;;
15151;SDS011;7676;50.900;6.234;2023-03-05T01:59:28;5.07;;;1.63;;
15151;SDS011;7676;50.900;6.234;2023-03-05T02:14:31;4.70;;;1.83;;
15151;SDS011;7676;50.900;6.234;2023-03-05T02:29:36;6.87;;;1.80;;
15151;SDS011;7676;50.900;6.234;2023-03-05T02:44:43;6.37;;;2.20;;
15151;SDS011;7676;50.900;6.234;2023-03-05T02:59:46;6.47;;;2.00;;
15151;SDS011;7676;50.900;6.234;2023-03-05T03:14:49;6.03;;;2.33;;
15151;SDS011;7676;50.900;6.234;2023-03-05T03:29:53;7.13;;;2.30;;
15151;SDS011;7676;50.900;6.234;2023-03-05T03:44:55;6.20;;;2.10;;
15151;SDS011;7676;50.900;6.234;2023-03-05T03:59:58;5.67;;;2.20;;
15151;SDS011;7676;50.900;6.234;2023-03-05T04:15:01;5.60;;;2.83;;
15151;SDS011;7676;50.900;6.234;2023-03-05T04:30:03;7.63;;;2.90;;
15151;SDS011;7676;50.900;6.234;2023-03-05T04:45:06;6.37;;;3.17;;
15151;SDS011;7676;50.900;6.234;2023-03-05T05:00:11;5.87;;;3.10;;
15151;SDS011;7676;50.900;6.234;2023-03-05T05:15:15;8.17;;;3.20;;
15151;SDS011;7676;50.900;6.234;2023-03-05T05:30:17;5.67;;;2.70;;
15151;SDS011;7676;50.900;6.234;2023-03-05T05:45:20;7.40;;;2.83;;
15151;SDS011;7676;50.900;6.234;2023-03-05T06:00:22;8.90;;;3.17;;
15151;SDS011;7676;50.900;6.234;2023-03-05T06:15:25;6.33;;;3.03;;
15151;SDS011;7676;50.900;6.234;2023-03-05T06:30:27;6.23;;;3.60;;
15151;SDS011;7676;50.900;6.234;2023-03-05T06:45:29;9.53;;;3.70;;
15151;SDS011;7676;50.900;6.234;2023-03-05T07:00:32;8.20;;;3.87;;
15151;SDS011;7676;50.900;6.234;2023-03-05T07:15:38;6.77;;;3.93;;
15151;SDS011;7676;50.900;6.234;2023-03-05T07:30:41;8.03;;;4.00;;
15151;SDS011;7676;50.900;6.234;2023-03-05T07:45:44;6.13;;;3.87;;
15151;SDS011;7676;50.900;6.234;2023-03-05T08:00:47;5.97;;;4.13;;
15151;SDS011;7676;50.900;6.234;2023-03-05T08:15:49;6.90;;;4.27;;
15151;SDS011;7676;50.900;6.234;2023-03-05T08:30:52;10.37;;;4.70;;
15151;SDS011;7676;50.900;6.234;2023-03-05T08:45:54;8.50;;;4.60;;
15151;SDS011;7676;50.900;6.234;2023-03-05T09:00:57;10.07;;;4.60;;
15151;SDS011;7676;50.900;6.234;2023-03-05T09:16:00;9.03;;;5.17;;
15151;SDS011;7676;50.900;6.234;2023-03-05T09:31:05;8.00;;;4.77;;
15151;SDS011;7676;50.900;6.234;2023-03-05T10:01:18;10.53;;;9.07;;
15151;SDS011;7676;50.900;6.234;2023-03-05T10:31:52;11.27;;;10.07;;
15151;SDS011;7676;50.900;6.234;2023-03-05T10:46:58;12.67;;;11.40;;
15151;SDS011;7676;50.900;6.234;2023-03-05T11:02:04;12.20;;;11.00;;
15151;SDS011;7676;50.900;6.234;2023-03-05T11:17:29;16.10;;;13.90;;
15151;SDS011;7676;50.900;6.234;2023-03-05T11:32:33;10.43;;;8.13;;
15151;SDS011;7676;50.900;6.234;2023-03-05T11:47:41;7.07;;;5.80;;
15151;SDS011;7676;50.900;6.234;2023-03-05T12:02:47;6.23;;;5.63;;
15151;SDS011;7676;50.900;6.234;2023-03-05T12:33:36;6.13;;;4.03;;
15151;SDS011;7676;50.900;6.234;2023-03-05T12:48:41;7.30;;;4.63;;
15151;SDS011;7676;50.900;6.234;2023-03-05T13:19:15;6.50;;;5.70;;
15151;SDS011;7676;50.900;6.234;2023-03-05T13:34:28;7.57;;;6.53;;
15151;SDS011;7676;50.900;6.234;2023-03-05T13:49:57;7.60;;;6.90;;
15151;SDS011;7676;50.900;6.234;2023-03-05T14:05:12;7.43;;;6.53;;
15151;SDS011;7676;50.900;6.234;2023-03-05T14:20:23;8.90;;;7.47;;
15151;SDS011;7676;50.900;6.234;2023-03-05T14:35:48;8.07;;;7.27;;
15151;SDS011;7676;50.900;6.234;2023-03-05T14:50:52;7.70;;;6.87;;
15151;SDS011;7676;50.900;6.234;2023-03-05T15:05:58;8.07;;;7.27;;
15151;SDS011;7676;50.900;6.234;2023-03-05T15:21:00;7.80;;;7.07;;
15151;SDS011;7676;50.900;6.234;2023-03-05T15:36:04;8.80;;;8.00;;
15151;SDS011;7676;50.900;6.234;2023-03-05T15:51:06;9.43;;;8.50;;
15151;SDS011;7676;50.900;6.234;2023-03-05T16:06:09;8.47;;;7.67;;
15151;SDS011;7676;50.900;6.234;2023-03-05T16:21:14;7.17;;;5.57;;
15151;SDS011;7676;50.900;6.234;2023-03-05T16:36:17;6.43;;;4.80;;
15151;SDS011;7676;50.900;6.234;2023-03-05T16:51:23;4.13;;;3.70;;
15151;SDS011;7676;50.900;6.234;2023-03-05T17:06:27;5.53;;;4.60;;
15151;SDS011;7676;50.900;6.234;2023-03-05T17:21:31;5.73;;;4.80;;
15151;SDS011;7676;50.900;6.234;2023-03-05T17:36:33;5.60;;;4.33;;
15151;SDS011;7676;50.900;6.234;2023-03-05T17:51:35;5.97;;;5.40;;
15151;SDS011;7676;50.900;6.234;2023-03-05T18:06:38;6.80;;;6.10;;
15151;SDS011;7676;50.900;6.234;2023-03-05T18:21:41;7.10;;;6.40;;
15151;SDS011;7676;50.900;6.234;2023-03-05T18:36:43;9.13;;;7.87;;
15151;SDS011;7676;50.900;6.234;2023-03-05T18:51:46;10.53;;;8.63;;
15151;SDS011;7676;50.900;6.234;2023-03-05T19:06:48;10.83;;;9.73;;
15151;SDS011;7676;50.900;6.234;2023-03-05T19:21:51;9.97;;;8.93;;
15151;SDS011;7676;50.900;6.234;2023-03-05T19:36:56;8.53;;;7.63;;
15151;SDS011;7676;50.900;6.234;2023-03-05T19:51:58;10.60;;;9.50;;
15151;SDS011;7676;50.900;6.234;2023-03-05T20:07:07;10.43;;;9.53;;
15151;SDS011;7676;50.900;6.234;2023-03-05T20:22:11;11.30;;;10.10;;
15151;SDS011;7676;50.900;6.234;2023-03-05T20:53:02;11.77;;;10.67;;
15151;SDS011;7676;50.900;6.234;2023-03-05T21:08:05;11.73;;;10.53;;
15151;SDS011;7676;50.900;6.234;2023-03-05T21:23:07;10.43;;;9.43;;
15151;SDS011;7676;50.900;6.234;2023-03-05T21:38:10;11.07;;;8.70;;
15151;SDS011;7676;50.900;6.234;2023-03-05T21:53:15;7.97;;;7.07;;
15151;SDS011;7676;50.900;6.234;2023-03-05T22:08:20;4.97;;;3.97;;
15151;SDS011;7676;50.900;6.234;2023-03-05T22:23:23;6.67;;;5.43;;
15151;SDS011;7676;50.900;6.234;2023-03-05T22:38:30;7.47;;;6.77;;
15151;SDS011;7676;50.900;6.234;2023-03-05T22:53:34;10.57;;;8.77;;
15151;SDS011;7676;50.900;6.234;2023-03-05T23:08:36;11.77;;;10.60;;
15151;SDS011;7676;50.900;6.234;2023-03-05T23:23:39;12.37;;;10.57;;
15151;SDS011;7676;50.900;6.234;2023-03-05T23:38:41;12.37;;;11.17;;
15151;SDS011;7676;50.900;6.234;2023-03-05T23:53:43;13.47;;;10.87;;
